sensor_id;sensor_type;location;lat;lon;timestamp;temperature;humidity
44069;DHT22;29738;51.234;5.484;2023-10-13T00:00:21;17.90;99.90
44069;DHT22;29738;51.234;5.484;2023-10-13T00:02:58;17.80;99.90
44069;DHT22;29738;51.234;5.484;2023-10-13T00:05:27;17.80;99.90
44069;DHT22;29738;51.234;5.484;2023-10-13T00:07:53;17.90;99.90
44069;DHT22;29738;51.234;5.484;2023-10-13T00:10:19;18.00;99.90
44069;DHT22;29738;51.234;5.484;2023-10-13T00:12:44;18.10;99.90
44069;DHT22;29738;51.234;5.484;2023-10-13T00:15:18;18.10;99.90
44069;DHT22;29738;51.234;5.484;2023-10-13T00:17:46;17.90;99.90
44069;DHT22;29738;51.234;5.484;2023-10-13T00:20:12;18.00;99.90
44069;DHT22;29738;51.234;5.484;2023-10-13T00:22:53;17.90;99.90
44069;DHT22;29738;51.234;5.484;2023-10-13T00:25:22;17.80;99.90
44069;DHT22;29738;51.234;5.484;2023-10-13T00:27:52;17.70;99.90
44069;DHT22;29738;51.234;5.484;2023-10-13T00:30:18;17.80;99.90
44069;DHT22;29738;51.234;5.484;2023-10-13T00:32:58;17.80;99.90
44069;DHT22;29738;51.234;5.484;2023-10-13T00:35:28;17.80;99.90
44069;DHT22;29738;51.234;5.484;2023-10-13T00:37:57;17.80;99.90
44069;DHT22;29738;51.234;5.484;2023-10-13T00:40:29;17.80;99.90
44069;DHT22;29738;51.234;5.484;2023-10-13T00:43:00;17.80;99.90
44069;DHT22;29738;51.234;5.484;2023-10-13T00:45:48;17.80;99.90
44069;DHT22;29738;51.234;5.484;2023-10-13T00:51:03;17.70;99.90
44069;DHT22;29738;51.234;5.484;2023-10-13T00:58:42;17.90;99.90
44069;DHT22;29738;51.234;5.484;2023-10-13T01:01:07;17.90;99.90
44069;DHT22;29738;51.234;5.484;2023-10-13T01:03:54;17.80;99.90
44069;DHT22;29738;51.234;5.484;2023-10-13T01:06:28;17.70;99.90
44069;DHT22;29738;51.234;5.484;2023-10-13T01:09:07;17.60;99.90
44069;DHT22;29738;51.234;5.484;2023-10-13T01:11:48;17.60;99.90
44069;DHT22;29738;51.234;5.484;2023-10-13T01:14:17;17.70;99.90
44069;DHT22;29738;51.234;5.484;2023-10-13T01:16:44;17.60;99.90
44069;DHT22;29738;51.234;5.484;2023-10-13T01:19:10;17.60;99.90
44069;DHT22;29738;51.234;5.484;2023-10-13T01:21:38;17.70;99.90
44069;DHT22;29738;51.234;5.484;2023-10-13T01:24:06;17.70;99.90
44069;DHT22;29738;51.234;5.484;2023-10-13T01:26:33;17.70;99.90
44069;DHT22;29738;51.234;5.484;2023-10-13T01:29:04;17.80;99.90
44069;DHT22;29738;51.234;5.484;2023-10-13T01:31:37;17.70;99.90
44069;DHT22;29738;51.234;5.484;2023-10-13T01:34:03;17.70;99.90
44069;DHT22;29738;51.234;5.484;2023-10-13T01:36:29;17.60;99.90
44069;DHT22;29738;51.234;5.484;2023-10-13T01:39:00;17.60;99.90
44069;DHT22;29738;51.234;5.484;2023-10-13T01:41:26;17.50;99.90
44069;DHT22;29738;51.234;5.484;2023-10-13T01:43:52;17.50;99.90
44069;DHT22;29738;51.234;5.484;2023-10-13T01:46:18;17.60;99.90
44069;DHT22;29738;51.234;5.484;2023-10-13T01:48:47;17.60;99.90
44069;DHT22;29738;51.234;5.484;2023-10-13T01:51:12;17.60;99.90
44069;DHT22;29738;51.234;5.484;2023-10-13T03:39:28;18.10;99.90
44069;DHT22;29738;51.234;5.484;2023-10-13T03:41:55;18.10;99.90
44069;DHT22;29738;51.234;5.484;2023-10-13T03:44:21;18.10;99.90
44069;DHT22;29738;51.234;5.484;2023-10-13T05:26:55;18.10;99.90
44069;DHT22;29738;51.234;5.484;2023-10-13T05:29:44;18.20;99.90
44069;DHT22;29738;51.234;5.484;2023-10-13T05:32:28;18.10;99.90
44069;DHT22;29738;51.234;5.484;2023-10-13T05:35:12;18.10;99.90
44069;DHT22;29738;51.234;5.484;2023-10-13T05:37:56;18.10;99.90
44069;DHT22;29738;51.234;5.484;2023-10-13T05:40:51;18.10;99.90
44069;DHT22;29738;51.234;5.484;2023-10-13T12:04:20;23.40;99.90
44069;DHT22;29738;51.234;5.484;2023-10-13T12:07:06;23.40;99.90
44069;DHT22;29738;51.234;5.484;2023-10-13T12:09:54;23.40;99.90
44069;DHT22;29738;51.234;5.484;2023-10-13T12:12:20;23.50;99.90
44069;DHT22;29738;51.234;5.484;2023-10-13T12:14:46;23.40;99.90
44069;DHT22;29738;51.234;5.484;2023-10-13T12:17:20;23.50;99.90
44069;DHT22;29738;51.234;5.484;2023-10-13T12:20:02;23.40;99.90
44069;DHT22;29738;51.234;5.484;2023-10-13T12:22:31;23.30;99.90
44069;DHT22;29738;51.234;5.484;2023-10-13T12:25:14;23.40;99.90
44069;DHT22;29738;51.234;5.484;2023-10-13T12:27:58;23.40;99.90
44069;DHT22;29738;51.234;5.484;2023-10-13T12:30:31;23.50;99.90
44069;DHT22;29738;51.234;5.484;2023-10-13T12:33:21;23.40;99.90
44069;DHT22;29738;51.234;5.484;2023-10-13T12:35:55;23.30;99.90
44069;DHT22;29738;51.234;5.484;2023-10-13T12:38:35;23.40;99.90
44069;DHT22;29738;51.234;5.484;2023-10-13T12:41:04;23.40;99.90
44069;DHT22;29738;51.234;5.484;2023-10-13T12:43:48;23.30;99.90
44069;DHT22;29738;51.234;5.484;2023-10-13T12:46:32;23.40;99.90
44069;DHT22;29738;51.234;5.484;2023-10-13T12:49:17;23.30;99.90
44069;DHT22;29738;51.234;5.484;2023-10-13T12:52:12;23.50;99.90
44069;DHT22;29738;51.234;5.484;2023-10-13T12:54:57;23.30;99.90
44069;DHT22;29738;51.234;5.484;2023-10-13T12:57:26;23.20;99.90
44069;DHT22;29738;51.234;5.484;2023-10-13T12:59:52;23.20;99.90
44069;DHT22;29738;51.234;5.484;2023-10-13T13:38:28;23.10;99.90
44069;DHT22;29738;51.234;5.484;2023-10-13T14:01:40;23.00;99.90
44069;DHT22;29738;51.234;5.484;2023-10-13T14:04:05;23.00;99.90
44069;DHT22;29738;51.234;5.484;2023-10-13T14:06:32;23.20;99.90
44069;DHT22;29738;51.234;5.484;2023-10-13T14:09:00;23.00;99.90
44069;DHT22;29738;51.234;5.484;2023-10-13T15:34:22;22.20;99.90
44069;DHT22;29738;51.234;5.484;2023-10-13T15:36:50;22.40;99.90
44069;DHT22;29738;51.234;5.484;2023-10-13T15:39:17;21.90;99.90
44069;DHT22;29738;51.234;5.484;2023-10-13T15:41:49;21.80;99.90
44069;DHT22;29738;51.234;5.484;2023-10-13T15:44:18;21.80;99.90
44069;DHT22;29738;51.234;5.484;2023-10-13T15:47:02;21.60;99.90
44069;DHT22;29738;51.234;5.484;2023-10-13T15:49:29;21.40;99.90
44069;DHT22;29738;51.234;5.484;2023-10-13T15:51:55;21.40;99.90
44069;DHT22;29738;51.234;5.484;2023-10-13T15:54:23;21.30;99.90
44069;DHT22;29738;51.234;5.484;2023-10-13T15:56:49;21.30;99.90
44069;DHT22;29738;51.234;5.484;2023-10-13T15:59:16;21.00;99.90
44069;DHT22;29738;51.234;5.484;2023-10-13T16:01:42;21.00;99.90
44069;DHT22;29738;51.234;5.484;2023-10-13T16:04:11;20.90;99.90
44069;DHT22;29738;51.234;5.484;2023-10-13T16:06:43;20.80;99.90
44069;DHT22;29738;51.234;5.484;2023-10-13T16:09:16;21.00;99.90
44069;DHT22;29738;51.234;5.484;2023-10-13T16:11:48;21.00;99.90
44069;DHT22;29738;51.234;5.484;2023-10-13T16:14:14;20.80;99.90
44069;DHT22;29738;51.234;5.484;2023-10-13T16:16:47;20.70;99.90
44069;DHT22;29738;51.234;5.484;2023-10-13T16:21:50;20.40;99.90
44069;DHT22;29738;51.234;5.484;2023-10-13T16:24:16;20.50;99.90
44069;DHT22;29738;51.234;5.484;2023-10-13T16:26:45;20.30;99.90
44069;DHT22;29738;51.234;5.484;2023-10-13T16:29:14;20.10;99.90
44069;DHT22;29738;51.234;5.484;2023-10-13T16:31:40;20.30;99.90
44069;DHT22;29738;51.234;5.484;2023-10-13T16:34:05;20.20;99.90
44069;DHT22;29738;51.234;5.484;2023-10-13T16:36:32;20.20;99.90
44069;DHT22;29738;51.234;5.484;2023-10-13T16:38:58;20.20;99.90
44069;DHT22;29738;51.234;5.484;2023-10-13T16:41:27;20.20;99.90
44069;DHT22;29738;51.234;5.484;2023-10-13T16:43:53;20.10;99.90
44069;DHT22;29738;51.234;5.484;2023-10-13T16:46:20;20.10;99.90
44069;DHT22;29738;51.234;5.484;2023-10-13T16:48:46;20.10;99.90
44069;DHT22;29738;51.234;5.484;2023-10-13T16:51:14;20.10;99.90
44069;DHT22;29738;51.234;5.484;2023-10-13T16:53:43;20.20;99.90
44069;DHT22;29738;51.234;5.484;2023-10-13T16:56:12;20.10;99.90
44069;DHT22;29738;51.234;5.484;2023-10-13T16:58:39;20.20;99.90
44069;DHT22;29738;51.234;5.484;2023-10-13T17:01:19;20.20;99.90
44069;DHT22;29738;51.234;5.484;2023-10-13T17:21:53;20.20;99.90
44069;DHT22;29738;51.234;5.484;2023-10-13T17:24:19;20.10;99.90
44069;DHT22;29738;51.234;5.484;2023-10-13T17:52:46;19.50;99.90
